createdAt,value
2016-11-13T00:00:47.079Z,0
2016-11-13T00:02:01.557Z,0
2016-11-13T00:03:15.936Z,0
2016-11-13T00:04:30.558Z,0
2016-11-13T00:05:45.683Z,0
2016-11-13T00:07:00.576Z,0
2016-11-13T00:08:18.218Z,0
2016-11-13T00:09:33.283Z,0
2016-11-13T00:10:47.101Z,0
2016-11-13T00:12:01.505Z,0
2016-11-13T00:13:16.335Z,0
2016-11-13T00:14:30.153Z,0
2016-11-13T00:15:44.020Z,0
2016-11-13T00:16:58.729Z,0
2016-11-13T00:18:13.067Z,0
2016-11-13T00:19:27.394Z,0
2016-11-13T00:20:40.974Z,0
2016-11-13T00:21:54.601Z,0
2016-11-13T00:23:08.397Z,0
2016-11-13T00:24:22.287Z,0
2016-11-13T00:25:36.002Z,0
2016-11-13T00:26:49.486Z,0
2016-11-13T00:28:02.938Z,0
2016-11-13T00:29:17.025Z,0
2016-11-13T00:30:30.755Z,0
2016-11-13T00:31:44.894Z,0
2016-11-13T00:33:00.033Z,0
2016-11-13T00:34:14.072Z,0
2016-11-13T00:35:27.985Z,0
2016-11-13T00:36:41.642Z,0
2016-11-13T00:37:56.228Z,0
2016-11-13T00:39:10.132Z,0
2016-11-13T00:40:24.297Z,0
2016-11-13T00:43:07.590Z,0
2016-11-13T00:44:36.721Z,0
2016-11-13T00:45:50.411Z,0
2016-11-13T00:47:04.018Z,0
2016-11-13T00:48:18.061Z,0
2016-11-13T00:49:32.612Z,0
2016-11-13T00:50:47.213Z,0
2016-11-13T00:52:01.055Z,0
2016-11-13T00:53:15.987Z,0
2016-11-13T00:54:30.547Z,0
2016-11-13T00:55:44.650Z,0
2016-11-13T00:56:58.835Z,0
2016-11-13T00:58:13.785Z,0
2016-11-13T00:59:28.164Z,0
2016-11-13T01:00:42.211Z,0
2016-11-13T01:02:10.989Z,0
2016-11-13T01:03:25.307Z,0
2016-11-13T01:04:39.333Z,0
2016-11-13T01:05:53.434Z,0
2016-11-13T01:07:07.299Z,0
2016-11-13T01:08:21.083Z,0
2016-11-13T01:09:35.354Z,0
2016-11-13T01:10:49.442Z,0
2016-11-13T01:12:03.506Z,0
2016-11-13T01:13:17.566Z,0
2016-11-13T01:14:31.265Z,0
2016-11-13T01:15:45.615Z,0
2016-11-13T01:16:59.261Z,0
2016-11-13T01:18:13.334Z,0
2016-11-13T01:19:27.420Z,0
2016-11-13T01:20:41.251Z,0
2016-11-13T01:21:55.459Z,0
2016-11-13T01:23:09.304Z,0
2016-11-13T01:24:23.827Z,0
2016-11-13T01:25:40.026Z,0
2016-11-13T01:26:53.812Z,0
2016-11-13T01:28:07.514Z,0
2016-11-13T01:29:21.623Z,0
2016-11-13T01:30:35.564Z,0
2016-11-13T01:31:49.174Z,0
2016-11-13T01:33:02.999Z,0
2016-11-13T01:34:17.000Z,0
2016-11-13T01:35:31.299Z,0
2016-11-13T01:36:45.098Z,0
2016-11-13T01:37:58.907Z,0
2016-11-13T01:39:12.809Z,0
2016-11-13T01:40:26.549Z,0
2016-11-13T01:41:40.394Z,0
2016-11-13T01:42:54.400Z,0
2016-11-13T01:44:08.068Z,0
2016-11-13T01:45:21.614Z,0
2016-11-13T01:46:35.543Z,0
2016-11-13T01:47:49.766Z,0
2016-11-13T01:49:04.262Z,0
2016-11-13T01:53:21.122Z,0
2016-11-13T01:54:35.084Z,0
2016-11-13T01:55:48.771Z,0
2016-11-13T01:57:02.880Z,0
2016-11-13T01:58:16.615Z,0
2016-11-13T01:59:30.736Z,0
2016-11-13T02:00:44.960Z,0
2016-11-13T02:01:59.023Z,0
2016-11-13T02:03:15.447Z,0
2016-11-13T02:04:29.638Z,0
2016-11-13T02:05:43.444Z,0
2016-11-13T02:06:57.695Z,0
2016-11-13T02:08:11.366Z,0
2016-11-13T02:09:25.454Z,0
2016-11-13T02:10:39.599Z,0
2016-11-13T02:11:53.503Z,0
2016-11-13T02:13:07.515Z,0
2016-11-13T02:14:21.716Z,0
2016-11-13T02:15:35.283Z,0
2016-11-13T02:16:49.487Z,0
2016-11-13T02:18:03.599Z,0
2016-11-13T02:19:17.812Z,0
2016-11-13T02:20:31.767Z,0
2016-11-13T02:21:45.521Z,0
2016-11-13T02:22:59.916Z,0
2016-11-13T02:24:13.966Z,0
2016-11-13T02:25:27.928Z,0
2016-11-13T02:26:42.299Z,0
2016-11-13T02:27:59.922Z,0
2016-11-13T02:29:28.785Z,0
2016-11-13T02:30:43.541Z,0
2016-11-13T02:32:12.007Z,0
2016-11-13T02:33:25.893Z,0
2016-11-13T02:34:39.490Z,0
2016-11-13T02:35:54.021Z,0
2016-11-13T02:37:08.577Z,0
2016-11-13T02:38:22.763Z,0
2016-11-13T02:39:36.726Z,0
2016-11-13T02:40:50.408Z,0
2016-11-13T02:42:04.332Z,0
2016-11-13T02:43:18.721Z,0
2016-11-13T02:44:34.911Z,0
2016-11-13T02:45:48.499Z,0
2016-11-13T02:47:02.918Z,0
2016-11-13T02:48:16.582Z,0
2016-11-13T02:49:30.498Z,0
2016-11-13T02:50:44.421Z,0
2016-11-13T02:51:58.300Z,0
2016-11-13T02:53:12.778Z,0
2016-11-13T02:54:27.139Z,0
2016-11-13T02:55:41.679Z,0
2016-11-13T02:56:56.025Z,0
2016-11-13T02:58:10.093Z,0
2016-11-13T02:59:47.507Z,0
2016-11-13T03:01:12.582Z,0
2016-11-13T03:02:49.569Z,0
2016-11-13T03:04:13.072Z,0
2016-11-13T03:05:38.967Z,0
2016-11-13T03:07:01.736Z,0
2016-11-13T03:08:20.990Z,0
2016-11-13T03:09:42.370Z,0
2016-11-13T03:10:59.148Z,0
2016-11-13T03:12:15.508Z,0
2016-11-13T03:13:30.084Z,0
2016-11-13T03:14:43.722Z,0
2016-11-13T03:15:57.542Z,0
2016-11-13T03:17:11.316Z,0
2016-11-13T03:18:25.307Z,0
2016-11-13T03:19:39.338Z,0
2016-11-13T03:20:53.509Z,0
2016-11-13T03:22:07.127Z,0
2016-11-13T03:23:21.026Z,0
2016-11-13T03:24:34.944Z,0
2016-11-13T03:25:48.702Z,0
2016-11-13T03:27:03.134Z,0
2016-11-13T03:28:17.010Z,0
2016-11-13T03:29:34.155Z,0
2016-11-13T03:30:53.838Z,0
2016-11-13T03:32:11.656Z,0
2016-11-13T03:34:57.852Z,0
2016-11-13T03:36:11.869Z,0
2016-11-13T03:37:40.292Z,0
2016-11-13T03:38:54.286Z,0
2016-11-13T03:40:08.088Z,0
2016-11-13T03:41:22.078Z,0
2016-11-13T03:42:36.404Z,0
2016-11-13T03:43:50.415Z,0
2016-11-13T03:45:04.059Z,0
2016-11-13T03:46:17.891Z,0
2016-11-13T03:47:32.180Z,0
2016-11-13T03:48:46.066Z,0
2016-11-13T03:49:59.966Z,0
2016-11-13T03:51:14.087Z,0
2016-11-13T03:52:27.965Z,0
2016-11-13T03:53:41.848Z,0
2016-11-13T03:54:55.466Z,0
2016-11-13T03:56:09.553Z,0
2016-11-13T03:57:23.685Z,0
2016-11-13T03:58:37.593Z,0
2016-11-13T03:59:51.670Z,0
2016-11-13T04:01:06.425Z,0
2016-11-13T04:02:20.313Z,0
2016-11-13T04:03:36.804Z,0
2016-11-13T04:04:50.834Z,0
2016-11-13T04:06:05.104Z,0
2016-11-13T04:07:19.411Z,0
2016-11-13T04:08:33.339Z,0
2016-11-13T04:09:47.502Z,0
2016-11-13T04:11:01.572Z,0
2016-11-13T04:12:15.522Z,0
2016-11-13T04:13:29.278Z,0
2016-11-13T04:14:43.461Z,0
2016-11-13T04:15:57.144Z,0
2016-11-13T04:17:11.293Z,0
2016-11-13T04:18:25.745Z,0
2016-11-13T04:19:40.049Z,0
2016-11-13T04:20:54.043Z,0
2016-11-13T04:22:08.532Z,0
2016-11-13T04:23:22.719Z,0
2016-11-13T04:24:37.385Z,0
2016-11-13T04:25:51.501Z,0
2016-11-13T04:27:05.115Z,0
2016-11-13T04:28:34.027Z,0
2016-11-13T04:29:48.013Z,0
2016-11-13T04:31:02.240Z,0
2016-11-13T04:32:15.914Z,0
2016-11-13T04:33:29.394Z,0
2016-11-13T04:34:43.297Z,0
2016-11-13T04:35:57.705Z,0
2016-11-13T04:37:11.681Z,0
2016-11-13T04:38:25.640Z,0
2016-11-13T04:39:39.465Z,0
2016-11-13T04:40:53.548Z,0
2016-11-13T04:42:07.784Z,0
2016-11-13T04:43:21.647Z,0
2016-11-13T04:44:35.413Z,0
2016-11-13T04:45:49.049Z,0
2016-11-13T04:47:03.110Z,0
2016-11-13T04:48:17.208Z,0
2016-11-13T04:49:31.510Z,0
2016-11-13T04:50:45.177Z,0
2016-11-13T04:51:59.138Z,0
2016-11-13T04:53:14.472Z,0
2016-11-13T04:54:29.187Z,0
2016-11-13T04:55:42.867Z,0
2016-11-13T04:56:56.763Z,0
2016-11-13T04:58:10.486Z,0
2016-11-13T04:59:24.379Z,0
2016-11-13T05:00:38.597Z,0
2016-11-13T05:01:52.825Z,0
2016-11-13T05:03:06.928Z,0
2016-11-13T05:04:20.693Z,0
2016-11-13T05:05:34.363Z,0
2016-11-13T05:06:48.531Z,0
2016-11-13T05:08:02.755Z,0
2016-11-13T05:09:16.528Z,0
2016-11-13T05:10:30.429Z,0
2016-11-13T05:11:44.252Z,0
2016-11-13T05:12:58.469Z,0
2016-11-13T05:14:12.726Z,0
2016-11-13T05:15:27.000Z,0
2016-11-13T05:16:40.871Z,0
2016-11-13T05:17:54.797Z,0
2016-11-13T05:19:09.016Z,0
2016-11-13T05:20:25.360Z,0
2016-11-13T05:21:39.428Z,0
2016-11-13T05:22:53.130Z,0
2016-11-13T05:24:07.422Z,0
2016-11-13T05:25:21.825Z,0
2016-11-13T05:26:35.945Z,0
2016-11-13T05:27:49.817Z,0
2016-11-13T05:29:03.637Z,0
2016-11-13T05:30:17.526Z,0
2016-11-13T05:31:31.780Z,0
2016-11-13T05:32:45.859Z,0
2016-11-13T05:33:59.718Z,0
2016-11-13T05:35:13.427Z,0
2016-11-13T05:36:27.220Z,0
2016-11-13T05:37:41.301Z,0
2016-11-13T05:38:55.464Z,0
2016-11-13T05:40:09.200Z,0
2016-11-13T05:41:22.970Z,0
2016-11-13T05:42:36.792Z,0
2016-11-13T05:43:50.841Z,0
2016-11-13T05:45:04.974Z,0
2016-11-13T05:46:19.086Z,0
2016-11-13T05:47:32.995Z,0
2016-11-13T05:48:46.830Z,0
2016-11-13T05:50:01.026Z,0
2016-11-13T05:51:15.332Z,0
2016-11-13T05:52:44.435Z,0
2016-11-13T05:53:58.558Z,0
2016-11-13T05:55:13.206Z,0
2016-11-13T05:56:27.447Z,0
2016-11-13T05:57:41.776Z,0
2016-11-13T05:58:55.822Z,0
2016-11-13T06:00:09.593Z,0
2016-11-13T06:01:23.518Z,0
2016-11-13T06:02:37.746Z,0
2016-11-13T06:03:52.077Z,0
2016-11-13T06:05:06.440Z,0
2016-11-13T06:06:20.189Z,0
2016-11-13T06:07:34.100Z,0
2016-11-13T06:08:48.370Z,4
2016-11-13T06:12:44.704Z,4
2016-11-13T06:13:58.765Z,4
2016-11-13T06:15:12.397Z,4
2016-11-13T06:16:26.206Z,4
2016-11-13T06:17:40.591Z,8
2016-11-13T06:18:54.351Z,8
2016-11-13T06:20:08.291Z,12
2016-11-13T06:21:21.773Z,12
2016-11-13T06:22:36.015Z,16
2016-11-13T06:23:50.191Z,12
2016-11-13T06:25:04.190Z,16
2016-11-13T06:26:18.799Z,20
2016-11-13T06:27:33.029Z,20
2016-11-13T06:28:47.513Z,24
2016-11-13T06:30:01.421Z,24
2016-11-13T06:31:15.363Z,28
2016-11-13T06:32:29.098Z,28
2016-11-13T06:33:43.137Z,32
2016-11-13T06:34:57.697Z,32
2016-11-13T06:36:11.667Z,36
2016-11-13T06:37:25.729Z,40
2016-11-13T06:38:42.104Z,44
2016-11-13T06:39:55.988Z,48
2016-11-13T06:41:09.773Z,48
2016-11-13T06:42:23.928Z,52
2016-11-13T06:43:38.034Z,52
2016-11-13T06:46:20.796Z,56
2016-11-13T06:47:35.091Z,60
2016-11-13T06:48:48.940Z,64
2016-11-13T06:50:02.823Z,64
2016-11-13T06:51:17.022Z,68
2016-11-13T06:52:30.753Z,68
2016-11-13T06:53:44.886Z,76
2016-11-13T06:54:59.523Z,76
2016-11-13T06:56:13.561Z,80
2016-11-13T06:57:27.793Z,88
2016-11-13T06:58:42.424Z,96
2016-11-13T06:59:56.837Z,100
2016-11-13T07:01:10.917Z,112
2016-11-13T07:02:24.678Z,120
2016-11-13T07:03:38.782Z,128
2016-11-13T07:04:52.850Z,132
2016-11-13T07:06:06.949Z,144
2016-11-13T07:07:21.100Z,160
2016-11-13T07:08:34.962Z,176
2016-11-13T07:09:49.390Z,200
2016-11-13T07:11:03.223Z,224
2016-11-13T07:12:17.005Z,244
2016-11-13T07:13:36.118Z,252
2016-11-13T07:14:49.891Z,268
2016-11-13T07:16:04.404Z,280
2016-11-13T07:17:18.727Z,292
2016-11-13T07:18:32.859Z,300
2016-11-13T07:19:46.657Z,308
2016-11-13T07:21:00.858Z,320
2016-11-13T07:22:15.242Z,340
2016-11-13T07:23:29.854Z,356
2016-11-13T07:24:44.080Z,368
2016-11-13T07:25:58.315Z,388
2016-11-13T07:27:12.048Z,404
2016-11-13T07:28:26.154Z,428
2016-11-13T07:29:39.950Z,456
2016-11-13T07:30:53.437Z,492
2016-11-13T07:32:07.641Z,528
2016-11-13T07:33:21.179Z,576
2016-11-13T07:34:35.136Z,612
2016-11-13T07:36:03.896Z,652
2016-11-13T07:37:17.727Z,668
2016-11-13T07:38:31.791Z,684
2016-11-13T07:39:47.054Z,728
2016-11-13T07:41:01.031Z,780
2016-11-13T07:42:16.075Z,840
2016-11-13T07:43:30.025Z,888
2016-11-13T07:44:44.057Z,928
2016-11-13T07:45:58.169Z,952
2016-11-13T07:47:26.691Z,964
2016-11-13T07:48:40.673Z,968
2016-11-13T07:49:54.412Z,980
2016-11-13T07:51:09.090Z,1004
2016-11-13T07:52:22.856Z,1020
2016-11-13T07:53:36.831Z,1036
2016-11-13T07:54:50.783Z,1020
2016-11-13T07:56:07.384Z,984
2016-11-13T07:57:21.742Z,960
2016-11-13T07:58:35.595Z,948
2016-11-13T07:59:49.548Z,948
2016-11-13T08:01:03.543Z,940
2016-11-13T08:02:17.618Z,932
2016-11-13T08:03:32.605Z,916
2016-11-13T08:04:46.991Z,912
2016-11-13T08:06:01.054Z,920
2016-11-13T08:07:15.003Z,928
2016-11-13T08:08:29.240Z,944
2016-11-13T08:09:43.402Z,972
2016-11-13T08:10:58.052Z,1004
2016-11-13T08:12:12.009Z,1036
2016-11-13T08:13:25.980Z,1044
2016-11-13T08:14:40.154Z,1088
2016-11-13T08:15:54.730Z,1136
2016-11-13T08:17:08.603Z,1192
2016-11-13T08:18:22.878Z,1252
2016-11-13T08:19:51.678Z,1340
2016-11-13T08:21:05.455Z,1436
2016-11-13T08:22:19.885Z,1532
2016-11-13T08:23:34.133Z,1680
2016-11-13T08:24:48.458Z,1848
2016-11-13T08:26:02.289Z,1948
2016-11-13T08:27:16.455Z,2108
2016-11-13T08:29:34.626Z,2464
2016-11-13T08:31:03.915Z,2760
2016-11-13T08:32:17.840Z,3028
2016-11-13T08:33:31.820Z,3132
2016-11-13T08:34:46.123Z,3096
2016-11-13T08:36:01.273Z,3040
2016-11-13T08:37:16.232Z,2980
2016-11-13T08:38:30.227Z,2972
2016-11-13T08:39:44.277Z,3008
2016-11-13T08:41:12.967Z,3020
2016-11-13T08:42:27.703Z,2868
2016-11-13T08:43:41.438Z,2720
2016-11-13T08:44:55.531Z,2608
2016-11-13T08:46:09.228Z,2508
2016-11-13T08:47:22.736Z,2432
2016-11-13T08:48:37.071Z,2340
2016-11-13T08:49:51.255Z,2284
2016-11-13T08:51:05.264Z,2208
2016-11-13T08:52:18.998Z,2192
2016-11-13T08:53:34.233Z,2140
2016-11-13T08:54:49.511Z,2084
2016-11-13T08:56:04.414Z,2028
2016-11-13T08:57:19.406Z,1996
2016-11-13T08:58:33.166Z,1984
2016-11-13T08:59:47.086Z,2012
2016-11-13T09:01:01.671Z,2048
2016-11-13T09:02:15.916Z,2084
2016-11-13T09:03:29.529Z,2176
2016-11-13T09:04:44.023Z,2268
2016-11-13T09:05:57.729Z,2360
2016-11-13T09:07:12.126Z,2488
2016-11-13T09:08:25.810Z,2656
2016-11-13T09:09:39.876Z,2836
2016-11-13T09:10:54.235Z,3056
2016-11-13T09:12:08.312Z,3292
2016-11-13T09:13:22.459Z,3536
2016-11-13T09:14:38.561Z,3840
2016-11-13T09:15:52.544Z,4072
2016-11-13T09:17:06.936Z,4124
2016-11-13T09:18:20.858Z,4224
2016-11-13T09:19:34.802Z,4240
2016-11-13T09:20:48.456Z,4204
2016-11-13T09:22:02.755Z,4012
2016-11-13T09:23:16.652Z,3740
2016-11-13T09:24:31.224Z,3568
2016-11-13T09:25:45.290Z,3460
2016-11-13T09:26:59.195Z,3352
2016-11-13T09:28:13.819Z,3264
2016-11-13T09:29:27.885Z,3188
2016-11-13T09:30:42.009Z,3148
2016-11-13T09:31:56.568Z,3116
2016-11-13T09:33:10.543Z,3092
2016-11-13T09:34:24.706Z,3100
2016-11-13T09:35:38.725Z,3112
2016-11-13T09:36:53.074Z,3104
2016-11-13T09:38:07.051Z,3092
2016-11-13T09:39:21.089Z,3120
2016-11-13T09:40:35.094Z,3092
2016-11-13T09:41:48.600Z,3068
2016-11-13T09:43:02.073Z,3068
2016-11-13T09:44:16.497Z,3068
2016-11-13T09:45:30.031Z,3044
2016-11-13T09:46:43.892Z,3048
2016-11-13T09:47:57.737Z,3072
2016-11-13T09:49:11.194Z,3096
2016-11-13T09:50:25.634Z,3144
2016-11-13T09:51:39.196Z,3100
2016-11-13T09:52:53.094Z,3116
2016-11-13T09:54:06.740Z,3116
2016-11-13T09:55:20.581Z,3136
2016-11-13T09:56:34.593Z,3144
2016-11-13T09:57:48.407Z,3136
2016-11-13T09:59:02.184Z,3144
2016-11-13T10:00:15.918Z,3136
2016-11-13T10:01:30.080Z,3124
2016-11-13T10:02:44.673Z,3124
2016-11-13T10:05:29.459Z,3128
2016-11-13T10:06:43.434Z,3132
2016-11-13T10:07:57.450Z,3112
2016-11-13T10:09:12.538Z,3096
2016-11-13T10:10:26.326Z,3080
2016-11-13T10:11:40.604Z,3076
2016-11-13T10:12:54.878Z,3088
2016-11-13T10:14:09.622Z,3120
2016-11-13T10:15:23.957Z,3128
2016-11-13T10:16:37.974Z,3144
2016-11-13T10:18:06.392Z,3160
2016-11-13T10:19:20.469Z,3172
2016-11-13T10:20:34.732Z,3204
2016-11-13T10:21:48.538Z,3212
2016-11-13T10:23:02.791Z,3224
2016-11-13T10:24:16.481Z,3232
2016-11-13T10:25:30.285Z,3228
2016-11-13T10:26:44.703Z,3228
2016-11-13T10:27:58.897Z,3232
2016-11-13T10:29:12.964Z,3240
2016-11-13T10:30:27.516Z,3228
2016-11-13T10:31:43.263Z,3212
2016-11-13T10:32:57.337Z,3196
2016-11-13T10:34:11.531Z,3184
2016-11-13T10:35:25.357Z,3176
2016-11-13T10:36:39.202Z,3172
2016-11-13T10:37:53.054Z,3180
2016-11-13T10:39:07.153Z,3184
2016-11-13T10:40:21.520Z,3184
2016-11-13T10:41:36.427Z,3192
2016-11-13T10:42:50.727Z,3184
2016-11-13T10:44:04.491Z,3164
2016-11-13T10:45:18.396Z,3152
2016-11-13T10:46:32.518Z,3140
2016-11-13T10:47:46.504Z,3116
2016-11-13T10:49:00.597Z,3116
2016-11-13T10:50:14.509Z,3116
2016-11-13T10:51:28.457Z,3108
2016-11-13T10:52:57.485Z,3092
2016-11-13T10:54:12.121Z,3088
2016-11-13T10:55:26.274Z,3080
2016-11-13T10:56:40.704Z,3064
2016-11-13T10:57:57.063Z,3044
2016-11-13T10:59:11.814Z,3008
2016-11-13T11:00:25.974Z,2960
2016-11-13T11:01:40.751Z,2904
2016-11-13T11:02:55.322Z,2848
2016-11-13T11:04:11.709Z,2784
2016-11-13T11:05:25.479Z,2728
2016-11-13T11:06:39.942Z,2688
2016-11-13T11:07:53.574Z,2660
2016-11-13T11:09:07.911Z,2640
2016-11-13T11:10:22.403Z,2632
2016-11-13T11:11:36.517Z,2640
2016-11-13T11:12:50.957Z,2632
2016-11-13T11:14:04.847Z,2616
2016-11-13T11:15:19.908Z,2584
2016-11-13T11:16:34.286Z,2560
2016-11-13T11:17:48.897Z,2552
2016-11-13T11:19:03.003Z,2556
2016-11-13T11:20:32.659Z,2580
2016-11-13T11:21:46.845Z,2612
2016-11-13T11:23:01.155Z,2688
2016-11-13T11:24:15.377Z,2712
2016-11-13T11:25:29.710Z,2792
2016-11-13T11:26:44.297Z,2844
2016-11-13T11:27:59.499Z,2912
2016-11-13T11:29:28.336Z,2960
2016-11-13T11:30:43.287Z,3000
2016-11-13T11:31:57.742Z,3032
2016-11-13T11:34:41.535Z,3084
2016-11-13T11:36:11.267Z,3112
2016-11-13T11:37:25.839Z,3116
2016-11-13T11:38:40.291Z,3120
2016-11-13T11:39:54.530Z,3108
2016-11-13T11:41:08.577Z,3104
2016-11-13T11:42:23.052Z,3084
2016-11-13T11:43:38.491Z,3096
2016-11-13T11:44:53.560Z,3144
2016-11-13T11:46:07.429Z,3164
2016-11-13T11:47:21.284Z,3180
2016-11-13T11:48:35.260Z,3192
2016-11-13T11:50:07.609Z,3156
2016-11-13T11:51:21.233Z,3136
2016-11-13T11:52:35.452Z,3120
2016-11-13T11:55:18.939Z,3052
2016-11-13T11:56:48.889Z,3004
2016-11-13T11:58:03.189Z,2956
2016-11-13T11:59:18.765Z,2888
2016-11-13T12:00:34.312Z,2864
2016-11-13T12:01:49.557Z,2820
2016-11-13T12:03:03.906Z,2768
2016-11-13T12:04:19.285Z,2708
2016-11-13T12:05:33.935Z,2652
2016-11-13T12:06:48.762Z,2600
2016-11-13T12:08:02.910Z,2544
2016-11-13T12:09:17.019Z,2488
2016-11-13T12:10:31.560Z,2432
2016-11-13T12:11:45.908Z,2488
2016-11-13T12:13:01.397Z,2532
2016-11-13T12:14:15.939Z,2436
2016-11-13T12:15:29.719Z,2348
2016-11-13T12:16:43.927Z,2316
2016-11-13T12:17:58.170Z,2292
2016-11-13T12:19:27.636Z,2252
2016-11-13T12:20:56.806Z,2132
2016-11-13T12:22:10.644Z,2072
2016-11-13T12:23:24.760Z,2004
2016-11-13T12:24:53.221Z,1944
2016-11-13T12:26:07.626Z,1940
2016-11-13T12:27:21.308Z,1896
2016-11-13T12:28:35.462Z,1860
2016-11-13T12:29:49.386Z,1856
2016-11-13T12:31:02.987Z,1800
2016-11-13T12:32:17.188Z,1768
2016-11-13T12:33:31.072Z,1780
2016-11-13T12:34:45.362Z,1736
2016-11-13T12:35:59.593Z,1704
2016-11-13T12:37:13.349Z,1696
2016-11-13T12:38:28.141Z,1696
2016-11-13T12:39:41.678Z,1672
2016-11-13T12:41:24.852Z,1644
2016-11-13T12:42:53.428Z,1604
2016-11-13T12:44:08.419Z,1576
2016-11-13T12:45:22.457Z,1576
2016-11-13T12:46:36.923Z,1588
2016-11-13T12:47:50.622Z,1596
2016-11-13T12:49:04.683Z,1564
2016-11-13T12:50:18.482Z,1544
2016-11-13T12:51:32.807Z,1528
2016-11-13T12:52:46.807Z,1512
2016-11-13T12:54:01.755Z,1492
2016-11-13T12:55:16.052Z,1484
2016-11-13T12:56:30.436Z,1476
2016-11-13T12:57:44.310Z,1452
2016-11-13T12:59:13.363Z,1444
2016-11-13T13:00:27.772Z,1440
2016-11-13T13:01:42.283Z,1436
2016-11-13T13:02:56.974Z,1432
2016-11-13T13:04:11.077Z,1432
2016-11-13T13:05:39.850Z,1420
2016-11-13T13:06:53.666Z,1416
2016-11-13T13:08:08.086Z,1424
2016-11-13T13:09:24.028Z,1428
2016-11-13T13:10:39.063Z,1428
2016-11-13T13:11:52.983Z,1436
2016-11-13T13:13:22.034Z,1432
2016-11-13T13:14:36.437Z,1440
2016-11-13T13:15:50.131Z,1456
2016-11-13T13:17:04.438Z,1476
2016-11-13T13:18:33.060Z,1504
2016-11-13T13:19:46.979Z,1528
2016-11-13T13:21:01.793Z,1548
2016-11-13T13:22:17.089Z,1572
2016-11-13T13:23:30.905Z,1592
2016-11-13T13:24:59.812Z,1608
2016-11-13T13:26:28.361Z,1632
2016-11-13T13:27:42.149Z,1652
2016-11-13T13:28:55.849Z,1664
2016-11-13T13:30:24.331Z,1616
2016-11-13T13:31:39.645Z,1576
2016-11-13T13:32:53.503Z,1548
2016-11-13T13:34:07.366Z,1540
2016-11-13T13:35:21.272Z,1536
2016-11-13T13:36:35.815Z,1532
2016-11-13T13:37:50.558Z,1532
2016-11-13T13:39:04.784Z,1528
2016-11-13T13:40:19.032Z,1520
2016-11-13T13:41:33.152Z,1520
2016-11-13T13:42:47.152Z,1516
2016-11-13T13:44:01.632Z,1512
2016-11-13T13:45:15.726Z,1504
2016-11-13T13:46:29.846Z,1492
2016-11-13T13:47:58.458Z,1484
2016-11-13T13:49:12.779Z,1468
2016-11-13T13:50:26.876Z,1448
2016-11-13T13:51:41.203Z,1428
2016-11-13T13:52:55.433Z,1408
2016-11-13T13:54:09.267Z,1388
2016-11-13T13:55:23.206Z,1368
2016-11-13T13:56:37.439Z,1352
2016-11-13T13:57:52.227Z,1336
2016-11-13T13:59:06.114Z,1320
2016-11-13T14:00:20.080Z,1304
2016-11-13T14:01:34.609Z,1292
2016-11-13T14:02:48.671Z,1284
2016-11-13T14:04:02.948Z,1280
2016-11-13T14:05:19.774Z,1272
2016-11-13T14:06:33.603Z,1256
2016-11-13T14:07:47.825Z,1232
2016-11-13T14:09:01.718Z,1204
2016-11-13T14:10:17.797Z,1176
2016-11-13T14:11:34.335Z,1152
2016-11-13T14:12:50.349Z,1132
2016-11-13T14:14:06.669Z,1116
2016-11-13T14:15:27.369Z,1092
2016-11-13T14:16:57.159Z,1068
2016-11-13T14:18:11.021Z,1048
2016-11-13T14:19:25.901Z,1032
2016-11-13T14:20:40.746Z,1028
2016-11-13T14:21:55.820Z,1020
2016-11-13T14:23:10.676Z,1020
2016-11-13T14:24:25.158Z,1016
2016-11-13T14:25:39.958Z,1020
2016-11-13T14:26:53.938Z,1024
2016-11-13T14:28:10.309Z,1032
2016-11-13T14:29:38.828Z,1036
2016-11-13T14:30:52.824Z,1044
2016-11-13T14:32:07.311Z,1044
2016-11-13T14:33:21.312Z,1040
2016-11-13T14:34:35.398Z,1040
2016-11-13T14:35:48.972Z,1032
2016-11-13T14:37:02.952Z,1020
2016-11-13T14:38:17.414Z,1008
2016-11-13T14:39:31.877Z,996
2016-11-13T14:40:45.881Z,976
2016-11-13T14:42:07.308Z,952
2016-11-13T14:43:24.811Z,928
2016-11-13T14:44:38.739Z,900
2016-11-13T14:46:08.134Z,868
2016-11-13T14:47:21.811Z,844
2016-11-13T14:48:51.820Z,816
2016-11-13T14:50:05.489Z,796
2016-11-13T14:51:20.140Z,772
2016-11-13T14:52:35.465Z,748
2016-11-13T14:53:49.725Z,728
2016-11-13T14:55:03.661Z,704
2016-11-13T14:56:17.693Z,680
2016-11-13T14:57:31.855Z,656
2016-11-13T14:58:47.643Z,632
2016-11-13T15:00:18.115Z,604
2016-11-13T15:01:32.332Z,580
2016-11-13T15:02:47.356Z,556
2016-11-13T15:04:01.561Z,536
2016-11-13T15:05:15.250Z,512
2016-11-13T15:06:29.189Z,492
2016-11-13T15:07:44.655Z,472
2016-11-13T15:08:59.879Z,448
2016-11-13T15:10:13.812Z,432
2016-11-13T15:11:27.507Z,416
2016-11-13T15:12:42.778Z,396
2016-11-13T15:13:57.181Z,384
2016-11-13T15:15:11.410Z,364
2016-11-13T15:16:27.622Z,352
2016-11-13T15:17:43.554Z,332
2016-11-13T15:19:01.079Z,316
2016-11-13T15:20:16.676Z,300
2016-11-13T15:21:30.511Z,288
2016-11-13T15:22:44.305Z,272
2016-11-13T15:23:58.644Z,260
2016-11-13T15:25:12.683Z,248
2016-11-13T15:26:26.582Z,228
2016-11-13T15:27:41.880Z,216
2016-11-13T15:28:55.870Z,200
2016-11-13T15:30:09.490Z,188
2016-11-13T15:31:23.360Z,176
2016-11-13T15:32:37.033Z,164
2016-11-13T15:33:51.067Z,148
2016-11-13T15:35:05.094Z,136
2016-11-13T15:36:19.090Z,124
2016-11-13T15:37:33.040Z,112
2016-11-13T15:38:46.721Z,100
2016-11-13T15:40:15.797Z,88
2016-11-13T15:41:31.447Z,80
2016-11-13T15:42:45.441Z,72
2016-11-13T15:44:00.749Z,64
2016-11-13T15:45:15.655Z,56
2016-11-13T15:46:34.205Z,48
2016-11-13T15:47:48.922Z,44
2016-11-13T19:28:43.014Z,0
2016-11-13T19:31:57.412Z,0
2016-11-13T19:33:11.881Z,0
2016-11-13T19:34:26.648Z,0
2016-11-13T19:35:55.432Z,0
2016-11-13T19:37:09.496Z,0
2016-11-13T19:38:23.622Z,0
2016-11-13T19:39:37.436Z,0
2016-11-13T19:40:51.464Z,0
2016-11-13T19:42:05.314Z,0
2016-11-13T19:43:19.515Z,0
2016-11-13T19:44:33.982Z,0
2016-11-13T19:45:47.999Z,0
2016-11-13T19:47:02.172Z,0
2016-11-13T19:48:16.007Z,0
2016-11-13T19:49:31.957Z,0
2016-11-13T19:50:45.974Z,0
2016-11-13T19:51:59.908Z,0
2016-11-13T19:53:28.531Z,0
2016-11-13T19:54:42.228Z,0
2016-11-13T19:55:56.611Z,0
2016-11-13T19:57:10.352Z,0
2016-11-13T19:58:23.949Z,0
2016-11-13T19:59:38.023Z,0
2016-11-13T20:00:52.044Z,0
2016-11-13T20:02:06.884Z,0
2016-11-13T20:03:21.312Z,0
2016-11-13T20:04:35.564Z,0
2016-11-13T20:05:51.476Z,0
2016-11-13T20:07:05.488Z,0
2016-11-13T20:08:19.989Z,0
2016-11-13T20:09:34.982Z,0
2016-11-13T20:10:48.837Z,0
2016-11-13T20:12:02.613Z,0
2016-11-13T20:13:16.465Z,0
2016-11-13T20:14:30.485Z,0
2016-11-13T20:15:44.546Z,0
2016-11-13T20:16:58.735Z,0
2016-11-13T20:18:12.696Z,0
2016-11-13T20:19:26.846Z,0
2016-11-13T20:20:40.768Z,0
2016-11-13T20:21:54.831Z,0
2016-11-13T20:23:09.078Z,0
2016-11-13T20:24:22.969Z,0
2016-11-13T20:25:37.154Z,0
2016-11-13T20:26:51.996Z,0
2016-11-13T20:28:05.777Z,0
2016-11-13T20:29:19.984Z,0
2016-11-13T20:30:34.297Z,0
2016-11-13T20:31:49.592Z,0
2016-11-13T20:33:03.882Z,0
2016-11-13T20:34:17.799Z,0
2016-11-13T20:35:32.041Z,0
2016-11-13T20:36:46.651Z,0
2016-11-13T20:39:29.878Z,0
2016-11-13T20:40:43.764Z,0
2016-11-13T20:41:58.380Z,0
2016-11-13T20:43:12.985Z,0
2016-11-13T20:44:27.553Z,0
2016-11-13T20:45:42.131Z,0
2016-11-13T20:46:55.970Z,0
2016-11-13T20:48:25.413Z,0
2016-11-13T20:49:39.517Z,0
2016-11-13T20:50:53.662Z,0
2016-11-13T20:52:07.928Z,0
2016-11-13T20:53:21.985Z,0
2016-11-13T20:54:35.785Z,0
2016-11-13T20:55:50.012Z,0
2016-11-13T20:57:04.291Z,0
2016-11-13T20:58:18.836Z,0
2016-11-13T20:59:32.530Z,0
2016-11-13T21:00:46.437Z,0
2016-11-13T21:02:00.168Z,0
2016-11-13T21:03:14.755Z,0
2016-11-13T21:04:28.582Z,0
2016-11-13T21:05:42.422Z,0
2016-11-13T21:06:56.325Z,0
2016-11-13T21:08:10.493Z,0
2016-11-13T21:09:24.983Z,0
2016-11-13T21:10:39.223Z,0
2016-11-13T21:12:08.244Z,0
2016-11-13T21:13:37.146Z,0
2016-11-13T21:14:51.593Z,0
2016-11-13T21:16:20.370Z,0
2016-11-13T21:17:34.784Z,0
2016-11-13T21:19:03.585Z,0
2016-11-13T21:20:17.654Z,0
2016-11-13T21:21:31.811Z,0
2016-11-13T21:22:45.750Z,0
2016-11-13T21:24:02.655Z,0
2016-11-13T21:25:16.879Z,0
2016-11-13T21:26:31.116Z,0
2016-11-13T21:27:45.363Z,0
2016-11-13T21:28:59.491Z,0
2016-11-13T21:30:27.950Z,0
2016-11-13T21:31:42.433Z,0
2016-11-13T21:32:57.083Z,0
2016-11-13T21:34:11.070Z,0
2016-11-13T21:35:24.941Z,0
2016-11-13T21:36:38.684Z,0
2016-11-13T21:37:52.410Z,0